OEBA/ABT METAR and TAF weather

Enter ICAO airport designator
Station Type Date Time Source
OEBA METAR 2021/09/16 20:00 UTC NOAA

OEBA 162000Z 08002KT 9999 SCT030 25/18 Q1018 NOSIG


Station Type Date Time Source
OEBA Decoded METAR 2021/09/16 20:00 UTC NOAA

Al Baha, Saudi Arabia (OEBA) 20-18N 041-38E 1662M
Sep 16, 2021 - 04:00 PM EDT / 2021.09.16 2000 UTC
Wind: from the E (080 degrees) at 2 MPH (2 KT):0
Visibility: greater than 7 mile(s):0
Sky conditions: partly cloudy
Temperature: 77 F (25 C)
Dew Point: 64 F (18 C)
Relative Humidity: 65%
Pressure (altimeter): 30.06 in. Hg (1018 hPa)
ob: OEBA 162000Z 08002KT 9999 SCT030 25/18 Q1018 NOSIG
cycle: 20

Station Type Date Time Source
OEBA TAF 2021/09/16 12:03 UTC NOAA

TAF OEBA 161100Z 1612/1718 25015KT 9999 FEW030
TEMPO 1612/1618 FEW025CB
BECMG 1618/1620 24006KT

Example: see airport list